sensor_id;sensor_type;location;lat;lon;timestamp;pressure;altitude;pressure_sealevel;temperature;humidity
27729;BME280;15126;42.186;24.340;2023-03-02T00:00:44;99875.41;;;6.79;97.25
27729;BME280;15126;42.186;24.340;2023-03-02T00:03:13;99884.47;;;6.66;97.54
27729;BME280;15126;42.186;24.340;2023-03-02T00:05:42;99878.09;;;6.62;97.79
27729;BME280;15126;42.186;24.340;2023-03-02T00:08:12;99889.22;;;6.72;97.34
27729;BME280;15126;42.186;24.340;2023-03-02T00:10:41;99891.59;;;6.70;97.41
27729;BME280;15126;42.186;24.340;2023-03-02T00:13:09;99884.44;;;6.69;97.73
27729;BME280;15126;42.186;24.340;2023-03-02T00:15:37;99863.03;;;6.59;97.86
27729;BME280;15126;42.186;24.340;2023-03-02T00:18:04;99878.53;;;6.78;98.07
27729;BME280;15126;42.186;24.340;2023-03-02T00:20:31;99871.03;;;6.85;97.87
27729;BME280;15126;42.186;24.340;2023-03-02T00:22:59;99875.78;;;6.78;97.75
27729;BME280;15126;42.186;24.340;2023-03-02T00:25:26;99872.25;;;6.84;97.80
27729;BME280;15126;42.186;24.340;2023-03-02T00:27:53;99863.47;;;6.72;97.47
27729;BME280;15126;42.186;24.340;2023-03-02T00:30:21;99866.22;;;6.65;97.28
27729;BME280;15126;42.186;24.340;2023-03-02T00:32:48;99872.53;;;6.62;96.66
27729;BME280;15126;42.186;24.340;2023-03-02T00:35:15;99873.28;;;6.48;97.64
27729;BME280;15126;42.186;24.340;2023-03-02T00:37:42;99874.88;;;6.52;97.78
27729;BME280;15126;42.186;24.340;2023-03-02T00:40:09;99876.91;;;6.66;97.34
27729;BME280;15126;42.186;24.340;2023-03-02T00:42:36;99865.44;;;6.68;96.91
27729;BME280;15126;42.186;24.340;2023-03-02T00:45:05;99875.72;;;6.64;96.78
27729;BME280;15126;42.186;24.340;2023-03-02T00:47:34;99870.19;;;6.67;96.85
27729;BME280;15126;42.186;24.340;2023-03-02T00:50:02;99838.03;;;6.45;96.40
27729;BME280;15126;42.186;24.340;2023-03-02T00:52:30;99859.09;;;6.60;96.77
27729;BME280;15126;42.186;24.340;2023-03-02T00:54:57;99869.75;;;6.58;97.06
27729;BME280;15126;42.186;24.340;2023-03-02T00:57:24;99861.09;;;6.63;96.27
27729;BME280;15126;42.186;24.340;2023-03-02T00:59:50;99858.72;;;6.65;96.00
27729;BME280;15126;42.186;24.340;2023-03-02T01:02:17;99861.88;;;6.67;95.81
27729;BME280;15126;42.186;24.340;2023-03-02T01:04:47;99859.13;;;6.71;95.34
27729;BME280;15126;42.186;24.340;2023-03-02T01:07:16;99858.72;;;6.72;95.50
27729;BME280;15126;42.186;24.340;2023-03-02T01:09:43;99848.06;;;6.78;95.78
27729;BME280;15126;42.186;24.340;2023-03-02T01:12:10;99845.25;;;6.67;95.44
27729;BME280;15126;42.186;24.340;2023-03-02T01:14:38;99841.69;;;6.70;95.45
27729;BME280;15126;42.186;24.340;2023-03-02T01:17:06;99844.09;;;6.79;95.77
27729;BME280;15126;42.186;24.340;2023-03-02T01:19:33;99838.13;;;6.77;95.23
27729;BME280;15126;42.186;24.340;2023-03-02T01:22:02;99844.09;;;6.82;95.83
27729;BME280;15126;42.186;24.340;2023-03-02T01:24:29;99839.38;;;6.86;95.58
27729;BME280;15126;42.186;24.340;2023-03-02T01:26:56;99845.69;;;6.83;95.37
27729;BME280;15126;42.186;24.340;2023-03-02T01:29:23;99836.97;;;6.81;95.33
27729;BME280;15126;42.186;24.340;2023-03-02T01:31:50;99836.19;;;6.81;95.13
27729;BME280;15126;42.186;24.340;2023-03-02T01:34:17;99835.38;;;6.73;95.63
27729;BME280;15126;42.186;24.340;2023-03-02T01:36:44;99835.72;;;6.61;96.00
27729;BME280;15126;42.186;24.340;2023-03-02T01:39:12;99836.94;;;6.67;95.46
27729;BME280;15126;42.186;24.340;2023-03-02T01:41:41;99832.22;;;6.71;96.05
27729;BME280;15126;42.186;24.340;2023-03-02T01:44:36;99825.09;;;6.74;96.36
27729;BME280;15126;42.186;24.340;2023-03-02T01:47:05;99826.66;;;6.71;95.89
27729;BME280;15126;42.186;24.340;2023-03-02T01:49:40;99810.78;;;6.61;96.28
27729;BME280;15126;42.186;24.340;2023-03-02T01:52:10;99817.94;;;6.73;96.31
27729;BME280;15126;42.186;24.340;2023-03-02T01:54:39;99833.41;;;6.77;96.33
27729;BME280;15126;42.186;24.340;2023-03-02T01:57:07;99825.06;;;6.70;96.50
27729;BME280;15126;42.186;24.340;2023-03-02T01:59:37;99822.69;;;6.65;97.07
27729;BME280;15126;42.186;24.340;2023-03-02T02:02:08;99828.97;;;6.55;97.82
27729;BME280;15126;42.186;24.340;2023-03-02T02:04:39;99836.50;;;6.58;97.97
27729;BME280;15126;42.186;24.340;2023-03-02T02:07:08;99830.56;;;6.56;97.90
27729;BME280;15126;42.186;24.340;2023-03-02T02:09:40;99819.88;;;6.54;98.28
27729;BME280;15126;42.186;24.340;2023-03-02T02:12:14;99812.34;;;6.55;98.43
27729;BME280;15126;42.186;24.340;2023-03-02T02:14:42;99815.94;;;6.59;98.14
27729;BME280;15126;42.186;24.340;2023-03-02T02:17:10;99823.44;;;6.58;98.16
27729;BME280;15126;42.186;24.340;2023-03-02T02:19:46;99803.69;;;6.60;98.00
27729;BME280;15126;42.186;24.340;2023-03-02T02:22:25;99795.78;;;6.66;98.16
27729;BME280;15126;42.186;24.340;2023-03-02T02:25:01;99808.84;;;6.65;97.97
27729;BME280;15126;42.186;24.340;2023-03-02T02:27:31;99806.06;;;6.65;97.98
27729;BME280;15126;42.186;24.340;2023-03-02T02:30:01;99791.38;;;6.61;98.24
27729;BME280;15126;42.186;24.340;2023-03-02T02:32:31;99799.72;;;6.72;98.07
27729;BME280;15126;42.186;24.340;2023-03-02T02:35:03;99794.19;;;6.68;98.12
27729;BME280;15126;42.186;24.340;2023-03-02T02:37:34;99798.94;;;6.68;98.09
27729;BME280;15126;42.186;24.340;2023-03-02T02:40:05;99799.75;;;6.68;98.23
27729;BME280;15126;42.186;24.340;2023-03-02T02:42:37;99789.03;;;6.63;98.40
27729;BME280;15126;42.186;24.340;2023-03-02T02:45:17;99797.34;;;6.70;97.96
27729;BME280;15126;42.186;24.340;2023-03-02T02:47:45;99798.97;;;6.71;98.19
27729;BME280;15126;42.186;24.340;2023-03-02T02:50:16;99783.50;;;6.63;98.05
27729;BME280;15126;42.186;24.340;2023-03-02T02:52:46;99788.22;;;6.66;98.08
27729;BME280;15126;42.186;24.340;2023-03-02T02:55:19;99791.00;;;6.59;97.85
27729;BME280;15126;42.186;24.340;2023-03-02T02:57:51;99783.91;;;6.65;98.44
27729;BME280;15126;42.186;24.340;2023-03-02T03:00:20;99785.47;;;6.63;98.22
27729;BME280;15126;42.186;24.340;2023-03-02T03:02:51;99789.03;;;6.59;97.59
27729;BME280;15126;42.186;24.340;2023-03-02T03:05:18;99780.72;;;6.63;97.37
27729;BME280;15126;42.186;24.340;2023-03-02T03:07:45;99779.13;;;6.58;97.55
27729;BME280;15126;42.186;24.340;2023-03-02T03:10:16;99773.97;;;6.60;97.45
27729;BME280;15126;42.186;24.340;2023-03-02T03:12:45;99786.25;;;6.67;97.34
27729;BME280;15126;42.186;24.340;2023-03-02T03:15:14;99783.09;;;6.57;97.27
27729;BME280;15126;42.186;24.340;2023-03-02T03:17:46;99779.13;;;6.62;97.37
27729;BME280;15126;42.186;24.340;2023-03-02T03:20:15;99782.69;;;6.59;96.99
27729;BME280;15126;42.186;24.340;2023-03-02T03:22:42;99788.63;;;6.54;97.66
27729;BME280;15126;42.186;24.340;2023-03-02T03:25:10;99787.41;;;6.51;97.55
27729;BME280;15126;42.186;24.340;2023-03-02T03:27:40;99779.88;;;6.48;97.66
27729;BME280;15126;42.186;24.340;2023-03-02T03:30:09;99779.09;;;6.48;98.03
27729;BME280;15126;42.186;24.340;2023-03-02T03:32:38;99794.19;;;6.57;97.51
27729;BME280;15126;42.186;24.340;2023-03-02T03:35:06;99790.19;;;6.55;97.40
27729;BME280;15126;42.186;24.340;2023-03-02T03:37:37;99807.63;;;6.66;97.03
27729;BME280;15126;42.186;24.340;2023-03-02T03:40:05;99802.09;;;6.66;97.08
27729;BME280;15126;42.186;24.340;2023-03-02T03:42:36;99788.22;;;6.59;96.59
27729;BME280;15126;42.186;24.340;2023-03-02T03:45:05;99796.97;;;6.68;96.33
27729;BME280;15126;42.186;24.340;2023-03-02T03:47:33;99794.59;;;6.70;96.41
27729;BME280;15126;42.186;24.340;2023-03-02T03:50:01;99800.53;;;6.72;96.54
27729;BME280;15126;42.186;24.340;2023-03-02T03:52:28;99796.19;;;6.71;96.64
27729;BME280;15126;42.186;24.340;2023-03-02T03:54:56;99792.19;;;6.69;96.28
27729;BME280;15126;42.186;24.340;2023-03-02T03:57:24;99811.22;;;6.74;96.54
27729;BME280;15126;42.186;24.340;2023-03-02T03:59:51;99804.44;;;6.60;97.37
27729;BME280;15126;42.186;24.340;2023-03-02T04:02:18;99811.97;;;6.64;97.02
27729;BME280;15126;42.186;24.340;2023-03-02T04:04:45;99810.81;;;6.68;96.52
27729;BME280;15126;42.186;24.340;2023-03-02T04:07:13;99801.69;;;6.57;96.80
27729;BME280;15126;42.186;24.340;2023-03-02T04:09:40;99804.84;;;6.59;96.69
27729;BME280;15126;42.186;24.340;2023-03-02T04:12:10;99806.03;;;6.62;96.74
27729;BME280;15126;42.186;24.340;2023-03-02T04:14:37;99812.00;;;6.67;96.33
27729;BME280;15126;42.186;24.340;2023-03-02T04:17:04;99810.81;;;6.68;96.61
27729;BME280;15126;42.186;24.340;2023-03-02T04:19:32;99787.84;;;6.57;96.58
27729;BME280;15126;42.186;24.340;2023-03-02T04:21:59;99794.19;;;6.65;96.27
27729;BME280;15126;42.186;24.340;2023-03-02T04:24:29;99796.94;;;6.54;96.20
27729;BME280;15126;42.186;24.340;2023-03-02T04:26:56;99779.53;;;6.57;97.02
27729;BME280;15126;42.186;24.340;2023-03-02T04:29:23;99790.19;;;6.58;96.75
27729;BME280;15126;42.186;24.340;2023-03-02T04:31:50;99783.47;;;6.49;97.19
27729;BME280;15126;42.186;24.340;2023-03-02T04:34:17;99794.13;;;6.50;96.91
27729;BME280;15126;42.186;24.340;2023-03-02T04:36:44;99802.06;;;6.48;96.82
27729;BME280;15126;42.186;24.340;2023-03-02T04:39:13;99796.47;;;6.38;97.92
27729;BME280;15126;42.186;24.340;2023-03-02T04:41:42;99777.81;;;6.28;97.28
27729;BME280;15126;42.186;24.340;2023-03-02T04:44:10;99805.19;;;6.40;97.43
27729;BME280;15126;42.186;24.340;2023-03-02T04:46:37;99809.94;;;6.43;97.82
27729;BME280;15126;42.186;24.340;2023-03-02T04:49:05;99802.41;;;6.36;97.17
27729;BME280;15126;42.186;24.340;2023-03-02T04:51:33;99812.28;;;6.34;96.69
27729;BME280;15126;42.186;24.340;2023-03-02T04:54:03;99808.78;;;6.44;97.09
27729;BME280;15126;42.186;24.340;2023-03-02T04:56:30;99806.00;;;6.40;96.40
27729;BME280;15126;42.186;24.340;2023-03-02T04:58:59;99811.53;;;6.44;96.05
27729;BME280;15126;42.186;24.340;2023-03-02T05:01:26;99810.72;;;6.33;95.81
27729;BME280;15126;42.186;24.340;2023-03-02T05:03:52;99815.06;;;6.37;96.99
27729;BME280;15126;42.186;24.340;2023-03-02T05:06:20;99807.94;;;6.33;97.07
27729;BME280;15126;42.186;24.340;2023-03-02T05:08:49;99805.13;;;6.26;97.52
27729;BME280;15126;42.186;24.340;2023-03-02T05:11:16;99822.56;;;6.30;97.10
27729;BME280;15126;42.186;24.340;2023-03-02T05:13:52;99814.22;;;6.26;96.79
27729;BME280;15126;42.186;24.340;2023-03-02T05:16:22;99815.03;;;6.27;96.92
27729;BME280;15126;42.186;24.340;2023-03-02T05:18:49;99818.22;;;6.32;96.67
27729;BME280;15126;42.186;24.340;2023-03-02T05:21:16;99817.41;;;6.28;96.81
27729;BME280;15126;42.186;24.340;2023-03-02T05:23:43;99801.53;;;6.11;97.03
27729;BME280;15126;42.186;24.340;2023-03-02T05:26:10;99822.09;;;6.17;97.37
27729;BME280;15126;42.186;24.340;2023-03-02T05:28:37;99820.16;;;6.21;98.10
27729;BME280;15126;42.186;24.340;2023-03-02T05:31:04;99825.28;;;6.23;97.54
27729;BME280;15126;42.186;24.340;2023-03-02T05:33:33;99825.28;;;6.19;98.13
27729;BME280;15126;42.186;24.340;2023-03-02T05:36:00;99813.41;;;6.19;97.82
27729;BME280;15126;42.186;24.340;2023-03-02T05:38:27;99812.22;;;6.20;97.98
27729;BME280;15126;42.186;24.340;2023-03-02T05:40:56;99820.94;;;6.22;97.53
27729;BME280;15126;42.186;24.340;2023-03-02T05:43:23;99803.50;;;6.11;97.62
27729;BME280;15126;42.186;24.340;2023-03-02T05:45:50;99810.66;;;6.19;98.05
27729;BME280;15126;42.186;24.340;2023-03-02T05:48:16;99819.78;;;6.26;97.09
27729;BME280;15126;42.186;24.340;2023-03-02T05:50:46;99827.31;;;6.36;97.17
27729;BME280;15126;42.186;24.340;2023-03-02T05:53:13;99824.94;;;6.31;96.55
27729;BME280;15126;42.186;24.340;2023-03-02T05:55:39;99827.34;;;6.33;96.29
27729;BME280;15126;42.186;24.340;2023-03-02T05:58:07;99832.88;;;6.36;96.26
27729;BME280;15126;42.186;24.340;2023-03-02T06:00:37;99836.06;;;6.42;96.19
27729;BME280;15126;42.186;24.340;2023-03-02T06:03:04;99841.22;;;6.43;95.90
27729;BME280;15126;42.186;24.340;2023-03-02T06:05:31;99844.78;;;6.44;95.30
27729;BME280;15126;42.186;24.340;2023-03-02T06:08:00;99844.81;;;6.51;95.25
27729;BME280;15126;42.186;24.340;2023-03-02T06:10:27;99843.19;;;6.43;95.24
27729;BME280;15126;42.186;24.340;2023-03-02T06:12:54;99839.59;;;6.35;95.78
27729;BME280;15126;42.186;24.340;2023-03-02T06:15:24;99847.94;;;6.42;95.93
27729;BME280;15126;42.186;24.340;2023-03-02T06:17:54;99855.88;;;6.51;95.80
27729;BME280;15126;42.186;24.340;2023-03-02T06:20:22;99856.28;;;6.53;95.04
27729;BME280;15126;42.186;24.340;2023-03-02T06:22:49;99859.44;;;6.55;95.11
27729;BME280;15126;42.186;24.340;2023-03-02T06:25:19;99862.19;;;6.48;95.02
27729;BME280;15126;42.186;24.340;2023-03-02T06:27:47;99862.53;;;6.32;95.21
27729;BME280;15126;42.186;24.340;2023-03-02T06:30:17;99855.44;;;6.42;94.85
27729;BME280;15126;42.186;24.340;2023-03-02T06:32:44;99847.13;;;6.42;95.38
27729;BME280;15126;42.186;24.340;2023-03-02T06:35:12;99872.91;;;6.49;94.56
27729;BME280;15126;42.186;24.340;2023-03-02T06:37:39;99843.94;;;6.33;94.55
27729;BME280;15126;42.186;24.340;2023-03-02T06:40:07;99868.53;;;6.45;94.82
27729;BME280;15126;42.186;24.340;2023-03-02T06:42:37;99874.88;;;6.49;95.03
27729;BME280;15126;42.186;24.340;2023-03-02T06:45:06;99866.56;;;6.52;94.56
27729;BME280;15126;42.186;24.340;2023-03-02T06:47:33;99873.69;;;6.53;94.14
27729;BME280;15126;42.186;24.340;2023-03-02T06:50:00;99878.81;;;6.48;94.48
27729;BME280;15126;42.186;24.340;2023-03-02T06:52:27;99878.00;;;6.40;94.51
27729;BME280;15126;42.186;24.340;2023-03-02T06:54:54;99882.38;;;6.45;94.67
27729;BME280;15126;42.186;24.340;2023-03-02T06:57:21;99878.03;;;6.47;94.29
27729;BME280;15126;42.186;24.340;2023-03-02T06:59:50;99877.22;;;6.43;94.38
27729;BME280;15126;42.186;24.340;2023-03-02T07:02:16;99880.38;;;6.38;93.80
27729;BME280;15126;42.186;24.340;2023-03-02T07:04:43;99881.56;;;6.37;93.94
27729;BME280;15126;42.186;24.340;2023-03-02T07:07:10;99882.72;;;6.33;94.43
27729;BME280;15126;42.186;24.340;2023-03-02T07:09:37;99880.72;;;6.30;94.53
27729;BME280;15126;42.186;24.340;2023-03-02T07:12:04;99885.88;;;6.31;94.33
27729;BME280;15126;42.186;24.340;2023-03-02T07:14:33;99889.44;;;6.32;93.42
27729;BME280;15126;42.186;24.340;2023-03-02T07:17:03;99885.16;;;6.48;93.95
27729;BME280;15126;42.186;24.340;2023-03-02T07:19:30;99882.00;;;6.50;93.31
27729;BME280;15126;42.186;24.340;2023-03-02T07:21:57;99888.34;;;6.50;93.02
27729;BME280;15126;42.186;24.340;2023-03-02T07:24:24;99893.06;;;6.50;93.45
27729;BME280;15126;42.186;24.340;2023-03-02T07:26:51;99885.19;;;6.55;92.79
27729;BME280;15126;42.186;24.340;2023-03-02T07:29:17;99884.38;;;6.55;92.53
27729;BME280;15126;42.186;24.340;2023-03-02T07:31:44;99876.06;;;6.55;93.78
27729;BME280;15126;42.186;24.340;2023-03-02T07:34:13;99884.88;;;6.71;94.00
27729;BME280;15126;42.186;24.340;2023-03-02T07:36:40;99875.00;;;6.81;93.53
27729;BME280;15126;42.186;24.340;2023-03-02T07:39:07;99878.13;;;6.72;93.12
27729;BME280;15126;42.186;24.340;2023-03-02T07:41:34;99884.50;;;6.83;92.51
27729;BME280;15126;42.186;24.340;2023-03-02T07:44:01;99882.91;;;6.79;92.00
27729;BME280;15126;42.186;24.340;2023-03-02T07:46:30;99880.94;;;6.83;92.21
27729;BME280;15126;42.186;24.340;2023-03-02T07:48:57;99895.59;;;6.90;91.14
27729;BME280;15126;42.186;24.340;2023-03-02T07:51:26;99901.91;;;6.80;90.62
27729;BME280;15126;42.186;24.340;2023-03-02T07:53:52;99901.53;;;6.85;90.99
27729;BME280;15126;42.186;24.340;2023-03-02T07:56:19;99901.13;;;6.83;91.11
27729;BME280;15126;42.186;24.340;2023-03-02T07:58:46;99901.09;;;6.73;91.47
27729;BME280;15126;42.186;24.340;2023-03-02T08:01:13;99895.16;;;6.78;91.04
27729;BME280;15126;42.186;24.340;2023-03-02T08:03:40;99901.50;;;6.71;90.29
27729;BME280;15126;42.186;24.340;2023-03-02T08:06:09;99891.59;;;6.70;91.46
27729;BME280;15126;42.186;24.340;2023-03-02T08:08:37;99903.88;;;6.76;91.18
27729;BME280;15126;42.186;24.340;2023-03-02T08:11:05;99898.72;;;6.75;91.11
27729;BME280;15126;42.186;24.340;2023-03-02T08:13:33;99880.50;;;6.77;90.89
27729;BME280;15126;42.186;24.340;2023-03-02T08:16:00;99888.84;;;6.88;91.24
27729;BME280;15126;42.186;24.340;2023-03-02T08:18:30;99887.72;;;6.92;91.21
27729;BME280;15126;42.186;24.340;2023-03-02T08:20:57;99886.09;;;6.88;91.34
27729;BME280;15126;42.186;24.340;2023-03-02T08:23:24;99879.69;;;6.66;91.87
27729;BME280;15126;42.186;24.340;2023-03-02T08:25:53;99863.06;;;6.66;92.46
27729;BME280;15126;42.186;24.340;2023-03-02T08:28:21;99874.22;;;6.84;92.28
27729;BME280;15126;42.186;24.340;2023-03-02T08:30:54;99882.94;;;6.89;92.40
27729;BME280;15126;42.186;24.340;2023-03-02T08:33:21;99888.47;;;6.89;91.59
27729;BME280;15126;42.186;24.340;2023-03-02T08:35:54;99881.34;;;6.92;91.39
27729;BME280;15126;42.186;24.340;2023-03-02T08:38:21;99880.19;;;6.93;91.24
27729;BME280;15126;42.186;24.340;2023-03-02T08:40:49;99880.97;;;6.90;91.51
27729;BME280;15126;42.186;24.340;2023-03-02T08:43:18;99887.31;;;6.97;91.59
27729;BME280;15126;42.186;24.340;2023-03-02T08:45:45;99888.50;;;7.00;91.54
27729;BME280;15126;42.186;24.340;2023-03-02T08:48:15;99886.13;;;6.95;91.99
27729;BME280;15126;42.186;24.340;2023-03-02T08:50:42;99882.53;;;6.91;92.05
27729;BME280;15126;42.186;24.340;2023-03-02T08:53:09;99870.25;;;6.88;90.82
27729;BME280;15126;42.186;24.340;2023-03-02T08:55:36;99879.78;;;6.94;91.40
27729;BME280;15126;42.186;24.340;2023-03-02T08:58:03;99877.03;;;7.05;90.58
27729;BME280;15126;42.186;24.340;2023-03-02T09:00:31;99882.16;;;6.99;90.62
27729;BME280;15126;42.186;24.340;2023-03-02T09:02:58;99881.38;;;7.02;91.12
27729;BME280;15126;42.186;24.340;2023-03-02T09:05:26;99876.63;;;7.10;91.11
27729;BME280;15126;42.186;24.340;2023-03-02T09:07:53;99878.59;;;6.99;89.38
27729;BME280;15126;42.186;24.340;2023-03-02T09:10:20;99875.84;;;6.95;90.54
27729;BME280;15126;42.186;24.340;2023-03-02T09:12:47;99872.28;;;7.05;91.26
27729;BME280;15126;42.186;24.340;2023-03-02T09:15:14;99872.66;;;7.07;90.68
27729;BME280;15126;42.186;24.340;2023-03-02T09:17:42;99869.13;;;7.03;89.58
27729;BME280;15126;42.186;24.340;2023-03-02T09:20:10;99851.28;;;7.01;89.98
27729;BME280;15126;42.186;24.340;2023-03-02T09:22:37;99869.53;;;7.09;90.13
27729;BME280;15126;42.186;24.340;2023-03-02T09:25:04;99872.69;;;7.22;91.53
27729;BME280;15126;42.186;24.340;2023-03-02T09:27:32;99868.72;;;7.26;90.68
27729;BME280;15126;42.186;24.340;2023-03-02T09:29:59;99875.47;;;7.32;89.56
27729;BME280;15126;42.186;24.340;2023-03-02T09:32:25;99875.50;;;7.36;89.73
27729;BME280;15126;42.186;24.340;2023-03-02T09:34:54;99873.91;;;7.38;90.33
27729;BME280;15126;42.186;24.340;2023-03-02T09:37:20;99869.56;;;7.34;89.67
27729;BME280;15126;42.186;24.340;2023-03-02T09:39:47;99874.28;;;7.37;89.90
27729;BME280;15126;42.186;24.340;2023-03-02T09:42:48;99873.53;;;7.36;89.79
27729;BME280;15126;42.186;24.340;2023-03-02T09:45:24;99859.25;;;7.31;90.22
27729;BME280;15126;42.186;24.340;2023-03-02T09:48:04;99855.25;;;7.14;90.53
27729;BME280;15126;42.186;24.340;2023-03-02T09:50:39;99848.91;;;7.06;90.82
27729;BME280;15126;42.186;24.340;2023-03-02T09:53:23;99865.56;;;7.06;91.34
27729;BME280;15126;42.186;24.340;2023-03-02T09:55:55;99861.59;;;7.00;91.44
27729;BME280;15126;42.186;24.340;2023-03-02T09:58:29;99853.63;;;6.88;92.65
27729;BME280;15126;42.186;24.340;2023-03-02T10:00:57;99856.81;;;7.04;92.95
27729;BME280;15126;42.186;24.340;2023-03-02T10:03:33;99851.69;;;7.03;92.65
27729;BME280;15126;42.186;24.340;2023-03-02T10:06:02;99844.13;;;6.96;93.22
27729;BME280;15126;42.186;24.340;2023-03-02T10:08:32;99844.94;;;6.97;93.14
27729;BME280;15126;42.186;24.340;2023-03-02T10:11:05;99844.56;;;6.98;93.68
27729;BME280;15126;42.186;24.340;2023-03-02T10:13:39;99833.47;;;6.98;93.07
27729;BME280;15126;42.186;24.340;2023-03-02T10:16:18;99830.66;;;6.88;93.09
27729;BME280;15126;42.186;24.340;2023-03-02T10:18:50;99841.00;;;7.08;93.79
27729;BME280;15126;42.186;24.340;2023-03-02T10:21:25;99841.38;;;7.07;94.58
27729;BME280;15126;42.186;24.340;2023-03-02T10:23:57;99829.09;;;7.08;94.16
27729;BME280;15126;42.186;24.340;2023-03-02T10:26:35;99840.19;;;7.18;93.52
27729;BME280;15126;42.186;24.340;2023-03-02T10:29:21;99842.19;;;7.14;94.02
27729;BME280;15126;42.186;24.340;2023-03-02T10:31:53;99808.09;;;6.89;94.12
27729;BME280;15126;42.186;24.340;2023-03-02T10:34:26;99815.63;;;6.92;93.84
27729;BME280;15126;42.186;24.340;2023-03-02T10:36:56;99810.88;;;7.07;95.25
27729;BME280;15126;42.186;24.340;2023-03-02T10:39:23;99823.56;;;7.15;94.98
27729;BME280;15126;42.186;24.340;2023-03-02T10:41:52;99810.88;;;7.10;94.69
27729;BME280;15126;42.186;24.340;2023-03-02T10:44:24;99823.94;;;7.10;94.81
27729;BME280;15126;42.186;24.340;2023-03-02T10:46:54;99816.44;;;7.10;95.32
27729;BME280;15126;42.186;24.340;2023-03-02T10:49:24;99815.66;;;7.17;95.30
27729;BME280;15126;42.186;24.340;2023-03-02T10:51:57;99814.06;;;7.19;95.12
27729;BME280;15126;42.186;24.340;2023-03-02T10:54:25;99820.41;;;7.16;95.66
27729;BME280;15126;42.186;24.340;2023-03-02T10:56:55;99809.69;;;7.22;94.10
27729;BME280;15126;42.186;24.340;2023-03-02T10:59:37;99812.47;;;7.33;94.65
27729;BME280;15126;42.186;24.340;2023-03-02T11:02:13;99804.53;;;7.35;93.87
27729;BME280;15126;42.186;24.340;2023-03-02T11:04:41;99780.38;;;7.21;94.28
27729;BME280;15126;42.186;24.340;2023-03-02T11:07:09;99804.16;;;7.33;94.11
27729;BME280;15126;42.186;24.340;2023-03-02T11:09:37;99796.63;;;7.44;94.06
27729;BME280;15126;42.186;24.340;2023-03-02T11:12:13;99789.88;;;7.34;94.21
27729;BME280;15126;42.186;24.340;2023-03-02T11:14:40;99795.81;;;7.43;94.21
27729;BME280;15126;42.186;24.340;2023-03-02T11:17:28;99803.34;;;7.50;93.68
27729;BME280;15126;42.186;24.340;2023-03-02T11:19:56;99808.47;;;7.58;93.31
27729;BME280;15126;42.186;24.340;2023-03-02T11:22:31;99809.28;;;7.48;93.98
27729;BME280;15126;42.186;24.340;2023-03-02T11:25:04;99812.44;;;7.50;92.33
27729;BME280;15126;42.186;24.340;2023-03-02T11:27:34;99804.53;;;7.49;92.79
27729;BME280;15126;42.186;24.340;2023-03-02T11:30:12;99807.69;;;7.51;92.84
27729;BME280;15126;42.186;24.340;2023-03-02T11:32:44;99785.91;;;7.46;93.23
27729;BME280;15126;42.186;24.340;2023-03-02T11:35:21;99789.06;;;7.48;91.61
27729;BME280;15126;42.186;24.340;2023-03-02T11:37:54;99794.63;;;7.48;91.29
27729;BME280;15126;42.186;24.340;2023-03-02T11:40:24;99788.69;;;7.46;91.78
27729;BME280;15126;42.186;24.340;2023-03-02T11:42:54;99789.50;;;7.36;91.60
27729;BME280;15126;42.186;24.340;2023-03-02T11:45:23;99781.19;;;7.11;92.72
27729;BME280;15126;42.186;24.340;2023-03-02T11:47:54;99778.78;;;7.13;93.15
27729;BME280;15126;42.186;24.340;2023-03-02T11:50:24;99767.28;;;7.07;93.93
27729;BME280;15126;42.186;24.340;2023-03-02T11:52:56;99780.75;;;7.12;94.00
27729;BME280;15126;42.186;24.340;2023-03-02T11:55:26;99772.44;;;7.02;94.67
27729;BME280;15126;42.186;24.340;2023-03-02T11:57:56;99771.66;;;7.08;94.36
27729;BME280;15126;42.186;24.340;2023-03-02T12:00:29;99774.44;;;7.15;93.88
27729;BME280;15126;42.186;24.340;2023-03-02T12:03:02;99755.41;;;7.10;94.14
27729;BME280;15126;42.186;24.340;2023-03-02T12:05:31;99778.78;;;7.24;93.93
27729;BME280;15126;42.186;24.340;2023-03-02T12:08:04;99770.47;;;7.24;93.01
27729;BME280;15126;42.186;24.340;2023-03-02T12:10:34;99767.69;;;7.24;92.52
27729;BME280;15126;42.186;24.340;2023-03-02T12:13:16;99767.31;;;7.14;93.10
27729;BME280;15126;42.186;24.340;2023-03-02T12:15:44;99771.66;;;7.15;93.66
27729;BME280;15126;42.186;24.340;2023-03-02T12:18:26;99763.31;;;7.01;93.62
27729;BME280;15126;42.186;24.340;2023-03-02T12:21:01;99775.63;;;7.11;93.41
27729;BME280;15126;42.186;24.340;2023-03-02T12:23:32;99768.09;;;7.08;93.91
27729;BME280;15126;42.186;24.340;2023-03-02T12:26:02;99770.09;;;7.14;94.47
27729;BME280;15126;42.186;24.340;2023-03-02T12:28:32;99771.25;;;7.24;94.13
27729;BME280;15126;42.186;24.340;2023-03-02T12:31:09;99768.50;;;7.28;93.74
27729;BME280;15126;42.186;24.340;2023-03-02T12:33:45;99770.88;;;7.18;93.48
27729;BME280;15126;42.186;24.340;2023-03-02T12:36:15;99764.13;;;7.16;94.41
27729;BME280;15126;42.186;24.340;2023-03-02T12:38:56;99765.72;;;7.20;94.38
27729;BME280;15126;42.186;24.340;2023-03-02T12:41:41;99770.47;;;7.31;93.93
27729;BME280;15126;42.186;24.340;2023-03-02T12:44:27;99766.53;;;7.14;93.39
27729;BME280;15126;42.186;24.340;2023-03-02T12:46:57;99758.19;;;7.17;93.80
27729;BME280;15126;42.186;24.340;2023-03-02T12:49:31;99753.03;;;7.12;93.52
27729;BME280;15126;42.186;24.340;2023-03-02T12:52:02;99760.97;;;7.25;93.53
27729;BME280;15126;42.186;24.340;2023-03-02T12:54:32;99756.22;;;7.25;93.73
27729;BME280;15126;42.186;24.340;2023-03-02T12:57:07;99760.97;;;7.25;93.45
27729;BME280;15126;42.186;24.340;2023-03-02T12:59:39;99762.53;;;7.26;93.05
27729;BME280;15126;42.186;24.340;2023-03-02T13:02:14;99762.16;;;7.13;93.31
27729;BME280;15126;42.186;24.340;2023-03-02T13:04:41;99762.16;;;7.20;93.07
27729;BME280;15126;42.186;24.340;2023-03-02T13:07:15;99748.28;;;7.09;93.68
27729;BME280;15126;42.186;24.340;2023-03-02T13:09:48;99732.47;;;7.06;93.85
27729;BME280;15126;42.186;24.340;2023-03-02T13:12:15;99743.94;;;7.08;93.71